Decoded Metar for PAOU (NELSON LAGOON in AK, USA) (IATA:N/A) | Meteo·Mobile Aviation Weather
aviador You're here:

PAOU Decoded Metar

NELSON LAGOON in AK, USA
Report Time2019-02-20 18:56:00
UTC Time2019-02-20 19:58:54
Flight Rules vfr VFR
Wind140° at 08 kt
W.Decomp.*RWY 08: 5.7 kt HW 5.7 kt RCW
W.Rank140° ranks 2
Current wind is below 140° avg. (13.9)
Visibility9999 m
Phenomena:N/A
Clouds:N/A
Expected CloudBase > 800 ft AGL from Temp-Dew spread
CeilingNone
Temp02°C (ISA -13)
Dew Point00°C (87% RH)
AAT-2.9°C
QNH1013 hPa
Density Alt-1,483 ft
Elevation13 ft
Report Wrong Elevation
Raw Report
PAOU 201856Z AUTO 14008KT 10SM CLR 02/00 A2992 RMK AO2 SLP131
T00220000 FZRANO=

Extra information for PAOU:More info

Metar Taf Metar & Taf Last 4 Metars F.Rules Stats Wind Profile Meteogram Temp Stats Airport Information Weather charts Add Link Nearby VenuesMetar ALERT Operation Metar Decoded Social comments

AIRNAV info for PAOU